Bournemouth, United Kingdom

3:13 AM BST on September 22, 2014 (GMT +0100)
Redhill | Change Station
CLOSE
Current Station
Personal Weather Station
Location: Bournemouth,
Elevation: 118 ft
Nearby Weather Stations

Elev 118 ft 50.76 °N, 1.88 °W | Updated 5 seconds ago

Mist
Mist
48.2 °F
Feels Like 48 °F
N
0.0
Wind Variable Wind from NNW
Gusts 0.0 mph

Today
High -- | Low -- °F
--% Chance of Precip.
Yesterday
High -- | Low -- °F
Precip. -- in
6:53 AM 7:05 PM
Waning Crescent, 4% visible
Pressure 30.33 in
Visibility -9999.0 miles
Clouds
Windchill 48 °F
Dew Point 44 °F
Humidity 85%
Rainfall 0.00 in
Snow Depth Not available.
UV 0.0 out of 12
Pollen Not available.
Air Quality Not available.
Flu Activity Not available.
METAR EGDM 220150Z AUTO 30006KT 4600 BR NCD 06/05 Q1027

More Conditions Fewer Conditions

Pressure 30.33 in
Visibility -9999.0 miles
Clouds
Windchill 48 °F
Dew Point 44 °F
Humidity 85%
Rainfall 0.00 in
Snow Depth Not available.
UV 0.0 out of 12
Pollen Not available.
Air Quality Not available.
Flu Activity Not available.
METAR EGDM 220150Z AUTO 30006KT 4600 BR NCD 06/05 Q1027

More Conditions Fewer Conditions

10-Day Weather Forecast

Almanac

Astronomy

Sep. 22, 2014 Rise Set
Actual Time 6:53 AM BST 7:05 PM BST
Civil Twilight 6:20 AM BST 7:38 PM BST
Nautical Twilight 5:41 AM BST 8:17 PM BST
Astronomical Twilight 5:01 AM BST 8:57 PM BST
Moon 5:00 AM BST 6:10 PM BST
Length of Visible Light 13h 18m
Length of Day
12h 12m
Tomorrow will be 3m 49s shorter.
Waning Crescent, 4% of the Moon is Illuminated
Sep 21
Waning Crescent
Sep 24
New
Oct 1
First Quarter
Oct 8
Full
Oct 15
Last Quarter

Yesterday's Extremes

Country Highs Country Lows

Community

WunderPhotos

Upload Photos

1,755,347 photos uploaded!

WunderBlogs® & News

Nearby

Snow Depth

Not available.

Earthquake Activity

City Distance Mag. Time & Date
No recent earthquake activity has been reported nearby.
Minimum magnitude displayed is 2.5.

Coastal Water Temperatures

Place Temperature
No Stations Reporting

Nearby Weather Stations